sensor_id;sensor_type;location;lat;lon;timestamp;P1;durP1;ratioP1;P2;durP2;ratioP2
55575;SDS011;41437;45.478;9.116;2023-10-08T10:36:42;21.48;;;13.63;;
55575;SDS011;41437;45.478;9.116;2023-10-08T10:39:52;23.40;;;13.40;;
55575;SDS011;41437;45.478;9.116;2023-10-08T10:42:56;17.45;;;10.88;;
55575;SDS011;41437;45.478;9.116;2023-10-08T10:45:58;20.38;;;12.15;;
55575;SDS011;41437;45.478;9.116;2023-10-08T11:22:03;20.85;;;11.88;;
55575;SDS011;41437;45.478;9.116;2023-10-08T11:25:19;19.48;;;10.50;;
55575;SDS011;41437;45.478;9.116;2023-10-08T11:28:23;17.58;;;10.30;;
55575;SDS011;41437;45.478;9.116;2023-10-08T11:47:41;19.17;;;10.70;;
55575;SDS011;41437;45.478;9.116;2023-10-08T11:50:44;18.63;;;9.50;;
55575;SDS011;41437;45.478;9.116;2023-10-08T11:53:47;16.52;;;8.85;;
55575;SDS011;41437;45.478;9.116;2023-10-08T11:57:47;17.42;;;9.52;;
55575;SDS011;41437;45.478;9.116;2023-10-08T12:00:50;19.17;;;10.98;;
55575;SDS011;41437;45.478;9.116;2023-10-08T12:03:53;17.35;;;9.43;;
55575;SDS011;41437;45.478;9.116;2023-10-08T12:06:59;21.85;;;9.48;;
55575;SDS011;41437;45.478;9.116;2023-10-08T12:10:07;19.10;;;9.57;;
55575;SDS011;41437;45.478;9.116;2023-10-08T12:16:13;18.50;;;8.90;;
55575;SDS011;41437;45.478;9.116;2023-10-08T12:19:21;17.75;;;8.55;;
55575;SDS011;41437;45.478;9.116;2023-10-08T12:22:22;18.33;;;8.43;;
55575;SDS011;41437;45.478;9.116;2023-10-08T12:25:24;18.33;;;8.40;;
55575;SDS011;41437;45.478;9.116;2023-10-08T12:28:27;19.90;;;7.90;;
55575;SDS011;41437;45.478;9.116;2023-10-08T12:31:28;17.48;;;7.70;;
55575;SDS011;41437;45.478;9.116;2023-10-08T12:34:30;16.33;;;7.30;;
55575;SDS011;41437;45.478;9.116;2023-10-08T12:37:35;14.93;;;7.53;;
55575;SDS011;41437;45.478;9.116;2023-10-08T12:40:36;17.30;;;6.72;;
55575;SDS011;41437;45.478;9.116;2023-10-08T12:43:54;16.40;;;6.97;;
55575;SDS011;41437;45.478;9.116;2023-10-08T12:46:58;17.83;;;6.68;;
55575;SDS011;41437;45.478;9.116;2023-10-08T12:49:59;18.13;;;5.63;;
55575;SDS011;41437;45.478;9.116;2023-10-08T12:53:01;18.15;;;5.82;;
55575;SDS011;41437;45.478;9.116;2023-10-08T12:56:04;12.88;;;5.38;;
55575;SDS011;41437;45.478;9.116;2023-10-08T12:59:08;14.68;;;4.90;;
55575;SDS011;41437;45.478;9.116;2023-10-08T13:02:20;16.77;;;5.10;;
55575;SDS011;41437;45.478;9.116;2023-10-08T13:05:28;15.20;;;4.93;;
55575;SDS011;41437;45.478;9.116;2023-10-08T13:08:30;14.65;;;4.65;;
55575;SDS011;41437;45.478;9.116;2023-10-08T13:11:32;12.25;;;4.53;;
55575;SDS011;41437;45.478;9.116;2023-10-08T13:14:35;17.67;;;4.78;;
55575;SDS011;41437;45.478;9.116;2023-10-08T13:17:37;13.73;;;4.63;;
55575;SDS011;41437;45.478;9.116;2023-10-08T13:20:42;17.45;;;4.32;;
55575;SDS011;41437;45.478;9.116;2023-10-08T13:23:45;14.33;;;4.30;;
55575;SDS011;41437;45.478;9.116;2023-10-08T13:26:47;17.42;;;4.22;;
55575;SDS011;41437;45.478;9.116;2023-10-08T13:29:50;18.95;;;4.35;;
55575;SDS011;41437;45.478;9.116;2023-10-08T13:32:52;19.10;;;4.45;;
55575;SDS011;41437;45.478;9.116;2023-10-08T13:35:53;13.90;;;3.92;;
55575;SDS011;41437;45.478;9.116;2023-10-08T13:38:55;15.13;;;4.07;;
55575;SDS011;41437;45.478;9.116;2023-10-08T13:41:56;18.88;;;4.07;;
55575;SDS011;41437;45.478;9.116;2023-10-08T13:45:02;15.43;;;5.10;;
55575;SDS011;41437;45.478;9.116;2023-10-08T13:48:08;14.25;;;3.67;;
55575;SDS011;41437;45.478;9.116;2023-10-08T13:51:14;12.63;;;3.40;;
55575;SDS011;41437;45.478;9.116;2023-10-08T13:54:20;17.00;;;3.75;;
55575;SDS011;41437;45.478;9.116;2023-10-08T13:57:22;15.32;;;3.70;;
55575;SDS011;41437;45.478;9.116;2023-10-08T14:00:28;14.73;;;3.45;;
55575;SDS011;41437;45.478;9.116;2023-10-08T14:03:36;21.15;;;3.70;;
55575;SDS011;41437;45.478;9.116;2023-10-08T14:06:38;16.63;;;3.78;;
